sensor_id;sensor_type;location;lat;lon;timestamp;temperature;humidity
20380;DHT22;10349;48.666;8.948;2023-04-10T00:02:27;2.90;99.90
20380;DHT22;10349;48.666;8.948;2023-04-10T00:04:53;2.90;99.90
20380;DHT22;10349;48.666;8.948;2023-04-10T00:07:18;2.80;99.90
20380;DHT22;10349;48.666;8.948;2023-04-10T00:09:44;2.80;99.90
20380;DHT22;10349;48.666;8.948;2023-04-10T00:12:10;2.70;99.90
20380;DHT22;10349;48.666;8.948;2023-04-10T00:14:36;2.70;99.90
20380;DHT22;10349;48.666;8.948;2023-04-10T00:17:02;2.70;99.90
20380;DHT22;10349;48.666;8.948;2023-04-10T00:19:28;2.70;99.90
20380;DHT22;10349;48.666;8.948;2023-04-10T00:21:54;2.60;99.90
20380;DHT22;10349;48.666;8.948;2023-04-10T00:24:20;2.60;99.90
20380;DHT22;10349;48.666;8.948;2023-04-10T00:26:46;2.50;99.90
20380;DHT22;10349;48.666;8.948;2023-04-10T00:29:11;2.50;99.90
20380;DHT22;10349;48.666;8.948;2023-04-10T00:31:37;2.50;99.90
20380;DHT22;10349;48.666;8.948;2023-04-10T00:34:03;2.50;99.90
20380;DHT22;10349;48.666;8.948;2023-04-10T00:36:28;2.40;99.90
20380;DHT22;10349;48.666;8.948;2023-04-10T00:38:54;2.30;99.90
20380;DHT22;10349;48.666;8.948;2023-04-10T00:41:20;2.30;99.90
20380;DHT22;10349;48.666;8.948;2023-04-10T00:43:48;2.20;99.90
20380;DHT22;10349;48.666;8.948;2023-04-10T00:46:14;2.20;99.90
20380;DHT22;10349;48.666;8.948;2023-04-10T00:48:40;2.20;99.90
20380;DHT22;10349;48.666;8.948;2023-04-10T00:51:06;2.20;99.90
20380;DHT22;10349;48.666;8.948;2023-04-10T00:53:32;2.10;99.90
20380;DHT22;10349;48.666;8.948;2023-04-10T00:56:00;2.10;99.90
20380;DHT22;10349;48.666;8.948;2023-04-10T00:58:26;2.10;99.90
20380;DHT22;10349;48.666;8.948;2023-04-10T01:00:51;2.00;99.90
20380;DHT22;10349;48.666;8.948;2023-04-10T01:03:18;1.90;99.90
20380;DHT22;10349;48.666;8.948;2023-04-10T01:06:00;1.90;99.90
20380;DHT22;10349;48.666;8.948;2023-04-10T01:11:21;1.70;99.90
20380;DHT22;10349;48.666;8.948;2023-04-10T01:13:54;1.50;99.90
20380;DHT22;10349;48.666;8.948;2023-04-10T01:16:35;1.50;99.90
20380;DHT22;10349;48.666;8.948;2023-04-10T01:19:20;1.40;99.90
20380;DHT22;10349;48.666;8.948;2023-04-10T01:21:51;1.40;99.90
20380;DHT22;10349;48.666;8.948;2023-04-10T01:24:30;1.40;99.90
20380;DHT22;10349;48.666;8.948;2023-04-10T01:27:19;1.30;99.90
20380;DHT22;10349;48.666;8.948;2023-04-10T01:29:52;1.40;99.90
20380;DHT22;10349;48.666;8.948;2023-04-10T01:32:21;1.40;99.90
20380;DHT22;10349;48.666;8.948;2023-04-10T01:34:50;1.40;99.90
20380;DHT22;10349;48.666;8.948;2023-04-10T01:37:24;1.40;99.90
20380;DHT22;10349;48.666;8.948;2023-04-10T01:40:08;1.40;99.90
20380;DHT22;10349;48.666;8.948;2023-04-10T01:42:38;1.40;99.90
20380;DHT22;10349;48.666;8.948;2023-04-10T01:45:08;1.40;99.90
20380;DHT22;10349;48.666;8.948;2023-04-10T01:47:36;1.40;99.90
20380;DHT22;10349;48.666;8.948;2023-04-10T01:50:03;1.30;99.90
20380;DHT22;10349;48.666;8.948;2023-04-10T01:52:31;1.30;99.90
20380;DHT22;10349;48.666;8.948;2023-04-10T01:55:14;1.30;99.90
20380;DHT22;10349;48.666;8.948;2023-04-10T01:57:48;1.20;99.90
20380;DHT22;10349;48.666;8.948;2023-04-10T02:00:16;1.20;99.90
20380;DHT22;10349;48.666;8.948;2023-04-10T02:02:42;1.20;99.90
20380;DHT22;10349;48.666;8.948;2023-04-10T02:05:09;1.20;99.90
20380;DHT22;10349;48.666;8.948;2023-04-10T02:08:01;1.10;99.90
20380;DHT22;10349;48.666;8.948;2023-04-10T02:10:44;1.10;99.90
20380;DHT22;10349;48.666;8.948;2023-04-10T02:13:14;1.10;99.90
20380;DHT22;10349;48.666;8.948;2023-04-10T02:15:45;1.00;99.90
20380;DHT22;10349;48.666;8.948;2023-04-10T02:18:15;1.10;99.90
20380;DHT22;10349;48.666;8.948;2023-04-10T02:20:41;1.00;99.90
20380;DHT22;10349;48.666;8.948;2023-04-10T02:23:07;1.00;99.90
20380;DHT22;10349;48.666;8.948;2023-04-10T02:25:34;1.00;99.90
20380;DHT22;10349;48.666;8.948;2023-04-10T02:28:04;1.00;99.90
20380;DHT22;10349;48.666;8.948;2023-04-10T02:30:31;1.00;99.90
20380;DHT22;10349;48.666;8.948;2023-04-10T02:32:58;0.90;99.90
20380;DHT22;10349;48.666;8.948;2023-04-10T02:35:24;0.90;99.90
20380;DHT22;10349;48.666;8.948;2023-04-10T02:37:51;0.80;99.90
20380;DHT22;10349;48.666;8.948;2023-04-10T02:40:17;0.80;99.90
20380;DHT22;10349;48.666;8.948;2023-04-10T02:43:05;0.70;99.90
20380;DHT22;10349;48.666;8.948;2023-04-10T02:45:31;0.70;99.90
20380;DHT22;10349;48.666;8.948;2023-04-10T02:47:58;0.60;99.90
20380;DHT22;10349;48.666;8.948;2023-04-10T02:50:23;0.60;99.90
20380;DHT22;10349;48.666;8.948;2023-04-10T02:52:49;0.50;99.90
20380;DHT22;10349;48.666;8.948;2023-04-10T02:55:15;0.50;99.90
20380;DHT22;10349;48.666;8.948;2023-04-10T02:57:41;0.40;99.90
20380;DHT22;10349;48.666;8.948;2023-04-10T03:00:08;0.40;99.90
20380;DHT22;10349;48.666;8.948;2023-04-10T03:02:57;0.50;99.90
20380;DHT22;10349;48.666;8.948;2023-04-10T03:05:25;0.50;99.90
20380;DHT22;10349;48.666;8.948;2023-04-10T03:07:51;0.50;99.90
20380;DHT22;10349;48.666;8.948;2023-04-10T03:10:18;0.50;99.90
20380;DHT22;10349;48.666;8.948;2023-04-10T03:12:44;0.50;99.90
20380;DHT22;10349;48.666;8.948;2023-04-10T03:15:10;0.50;99.90
20380;DHT22;10349;48.666;8.948;2023-04-10T03:17:36;0.50;99.90
20380;DHT22;10349;48.666;8.948;2023-04-10T03:20:04;0.50;99.90
20380;DHT22;10349;48.666;8.948;2023-04-10T03:22:31;0.50;99.90
20380;DHT22;10349;48.666;8.948;2023-04-10T03:24:57;0.40;99.90
20380;DHT22;10349;48.666;8.948;2023-04-10T03:27:23;0.40;99.90
20380;DHT22;10349;48.666;8.948;2023-04-10T03:29:50;0.30;99.90
20380;DHT22;10349;48.666;8.948;2023-04-10T03:32:15;0.30;99.90
20380;DHT22;10349;48.666;8.948;2023-04-10T03:34:41;0.20;99.90
20380;DHT22;10349;48.666;8.948;2023-04-10T03:37:07;0.20;99.90
20380;DHT22;10349;48.666;8.948;2023-04-10T03:39:33;0.20;99.90
20380;DHT22;10349;48.666;8.948;2023-04-10T03:42:01;0.20;99.90
20380;DHT22;10349;48.666;8.948;2023-04-10T03:44:27;0.20;99.90
20380;DHT22;10349;48.666;8.948;2023-04-10T03:46:53;0.10;99.90
20380;DHT22;10349;48.666;8.948;2023-04-10T03:49:19;0.10;99.90
20380;DHT22;10349;48.666;8.948;2023-04-10T03:51:45;0.10;99.90
20380;DHT22;10349;48.666;8.948;2023-04-10T03:54:10;0.10;99.90
20380;DHT22;10349;48.666;8.948;2023-04-10T03:56:36;0.10;99.90
20380;DHT22;10349;48.666;8.948;2023-04-10T03:59:02;0.10;99.90
20380;DHT22;10349;48.666;8.948;2023-04-10T04:01:29;0.10;99.90
20380;DHT22;10349;48.666;8.948;2023-04-10T04:04:00;0.00;99.90
20380;DHT22;10349;48.666;8.948;2023-04-10T04:06:45;0.00;99.90
20380;DHT22;10349;48.666;8.948;2023-04-10T04:09:18;0.00;99.90
20380;DHT22;10349;48.666;8.948;2023-04-10T04:12:01;0.10;99.90
20380;DHT22;10349;48.666;8.948;2023-04-10T04:14:46;0.10;99.90
20380;DHT22;10349;48.666;8.948;2023-04-10T04:17:18;0.10;99.90
20380;DHT22;10349;48.666;8.948;2023-04-10T04:20:02;0.10;99.90
20380;DHT22;10349;48.666;8.948;2023-04-10T04:22:46;0.00;99.90
20380;DHT22;10349;48.666;8.948;2023-04-10T04:25:12;0.00;99.90
20380;DHT22;10349;48.666;8.948;2023-04-10T04:28:01;0.00;99.90
20380;DHT22;10349;48.666;8.948;2023-04-10T04:30:45;-0.10;99.90
20380;DHT22;10349;48.666;8.948;2023-04-10T04:33:21;-0.10;99.90
20380;DHT22;10349;48.666;8.948;2023-04-10T04:35:56;-0.10;99.90
20380;DHT22;10349;48.666;8.948;2023-04-10T04:38:49;-0.10;99.90
20380;DHT22;10349;48.666;8.948;2023-04-10T04:41:48;-0.10;99.90
20380;DHT22;10349;48.666;8.948;2023-04-10T04:44:30;0.00;99.90
20380;DHT22;10349;48.666;8.948;2023-04-10T04:47:01;0.00;99.90
20380;DHT22;10349;48.666;8.948;2023-04-10T04:49:45;0.00;99.90
20380;DHT22;10349;48.666;8.948;2023-04-10T04:52:19;0.00;99.90
20380;DHT22;10349;48.666;8.948;2023-04-10T04:54:57;0.00;99.90
20380;DHT22;10349;48.666;8.948;2023-04-10T04:57:52;0.10;99.90
20380;DHT22;10349;48.666;8.948;2023-04-10T05:00:25;0.10;99.90
20380;DHT22;10349;48.666;8.948;2023-04-10T05:03:01;0.10;99.90
20380;DHT22;10349;48.666;8.948;2023-04-10T05:05:38;0.10;99.90
20380;DHT22;10349;48.666;8.948;2023-04-10T05:08:16;0.10;99.90
20380;DHT22;10349;48.666;8.948;2023-04-10T05:10:59;0.20;99.90
20380;DHT22;10349;48.666;8.948;2023-04-10T05:13:39;0.20;99.90
20380;DHT22;10349;48.666;8.948;2023-04-10T05:16:23;0.20;99.90
20380;DHT22;10349;48.666;8.948;2023-04-10T05:19:09;0.20;99.90
20380;DHT22;10349;48.666;8.948;2023-04-10T05:21:54;0.20;99.90
20380;DHT22;10349;48.666;8.948;2023-04-10T05:24:39;0.30;99.90
20380;DHT22;10349;48.666;8.948;2023-04-10T05:27:28;0.30;99.90
20380;DHT22;10349;48.666;8.948;2023-04-10T05:30:12;0.30;99.90
20380;DHT22;10349;48.666;8.948;2023-04-10T05:32:56;0.30;99.90
20380;DHT22;10349;48.666;8.948;2023-04-10T05:35:35;0.30;99.90
20380;DHT22;10349;48.666;8.948;2023-04-10T05:38:10;0.40;99.90
20380;DHT22;10349;48.666;8.948;2023-04-10T05:41:12;0.50;99.90
20380;DHT22;10349;48.666;8.948;2023-04-10T05:43:57;0.50;99.90
20380;DHT22;10349;48.666;8.948;2023-04-10T05:46:43;0.50;99.90
20380;DHT22;10349;48.666;8.948;2023-04-10T05:49:28;0.40;99.90
20380;DHT22;10349;48.666;8.948;2023-04-10T05:52:10;0.40;99.90
20380;DHT22;10349;48.666;8.948;2023-04-10T05:54:56;0.50;99.90
20380;DHT22;10349;48.666;8.948;2023-04-10T05:57:40;0.50;99.90
20380;DHT22;10349;48.666;8.948;2023-04-10T06:00:22;0.60;99.90
20380;DHT22;10349;48.666;8.948;2023-04-10T06:03:17;0.60;99.90
20380;DHT22;10349;48.666;8.948;2023-04-10T06:05:50;0.70;99.90
20380;DHT22;10349;48.666;8.948;2023-04-10T06:08:16;0.80;99.90
20380;DHT22;10349;48.666;8.948;2023-04-10T06:10:41;0.90;99.90
20380;DHT22;10349;48.666;8.948;2023-04-10T06:13:09;1.00;99.90
20380;DHT22;10349;48.666;8.948;2023-04-10T06:15:35;1.10;99.90
20380;DHT22;10349;48.666;8.948;2023-04-10T06:18:00;1.10;99.90
20380;DHT22;10349;48.666;8.948;2023-04-10T06:20:26;1.20;99.90
20380;DHT22;10349;48.666;8.948;2023-04-10T06:22:52;1.20;99.90
20380;DHT22;10349;48.666;8.948;2023-04-10T06:25:18;1.20;99.90
20380;DHT22;10349;48.666;8.948;2023-04-10T06:27:44;1.40;99.90
20380;DHT22;10349;48.666;8.948;2023-04-10T06:30:09;1.40;99.90
20380;DHT22;10349;48.666;8.948;2023-04-10T06:32:35;1.50;99.90
20380;DHT22;10349;48.666;8.948;2023-04-10T06:35:01;1.60;99.90
20380;DHT22;10349;48.666;8.948;2023-04-10T06:37:28;1.70;99.90
20380;DHT22;10349;48.666;8.948;2023-04-10T06:40:04;1.80;99.90
20380;DHT22;10349;48.666;8.948;2023-04-10T06:42:31;1.90;99.90
20380;DHT22;10349;48.666;8.948;2023-04-10T06:45:05;2.00;99.90
20380;DHT22;10349;48.666;8.948;2023-04-10T06:47:31;2.10;99.90
20380;DHT22;10349;48.666;8.948;2023-04-10T06:49:56;2.20;99.90
20380;DHT22;10349;48.666;8.948;2023-04-10T06:52:23;2.20;99.90
20380;DHT22;10349;48.666;8.948;2023-04-10T06:54:49;2.30;99.90
20380;DHT22;10349;48.666;8.948;2023-04-10T06:57:15;2.40;99.90
20380;DHT22;10349;48.666;8.948;2023-04-10T06:59:41;2.40;99.90
20380;DHT22;10349;48.666;8.948;2023-04-10T07:02:07;2.50;99.90
20380;DHT22;10349;48.666;8.948;2023-04-10T07:04:33;2.60;99.90
20380;DHT22;10349;48.666;8.948;2023-04-10T07:06:58;2.70;99.90
20380;DHT22;10349;48.666;8.948;2023-04-10T07:09:28;2.80;99.90
20380;DHT22;10349;48.666;8.948;2023-04-10T07:11:54;2.90;99.90
20380;DHT22;10349;48.666;8.948;2023-04-10T07:14:20;3.00;99.90
20380;DHT22;10349;48.666;8.948;2023-04-10T07:16:45;3.20;99.90
20380;DHT22;10349;48.666;8.948;2023-04-10T07:19:11;3.30;99.90
20380;DHT22;10349;48.666;8.948;2023-04-10T07:21:37;3.50;99.90
20380;DHT22;10349;48.666;8.948;2023-04-10T07:24:04;3.60;99.90
20380;DHT22;10349;48.666;8.948;2023-04-10T07:26:30;3.80;99.90
20380;DHT22;10349;48.666;8.948;2023-04-10T07:28:55;3.90;99.90
20380;DHT22;10349;48.666;8.948;2023-04-10T07:31:21;4.10;99.90
20380;DHT22;10349;48.666;8.948;2023-04-10T07:33:47;4.30;99.90
20380;DHT22;10349;48.666;8.948;2023-04-10T07:36:13;4.50;99.90
20380;DHT22;10349;48.666;8.948;2023-04-10T07:38:38;4.70;99.90
20380;DHT22;10349;48.666;8.948;2023-04-10T07:41:04;5.00;99.90
20380;DHT22;10349;48.666;8.948;2023-04-10T07:43:30;5.10;99.90
20380;DHT22;10349;48.666;8.948;2023-04-10T07:45:56;5.20;99.90
20380;DHT22;10349;48.666;8.948;2023-04-10T07:48:22;5.40;99.90
20380;DHT22;10349;48.666;8.948;2023-04-10T07:50:49;5.60;99.90
20380;DHT22;10349;48.666;8.948;2023-04-10T07:53:19;5.70;99.90
20380;DHT22;10349;48.666;8.948;2023-04-10T07:55:46;6.00;99.90
20380;DHT22;10349;48.666;8.948;2023-04-10T07:58:13;6.10;99.90
20380;DHT22;10349;48.666;8.948;2023-04-10T08:00:39;6.50;99.90
20380;DHT22;10349;48.666;8.948;2023-04-10T08:03:05;6.50;99.90
20380;DHT22;10349;48.666;8.948;2023-04-10T08:05:32;6.70;99.90
20380;DHT22;10349;48.666;8.948;2023-04-10T08:07:58;6.90;99.90
20380;DHT22;10349;48.666;8.948;2023-04-10T08:10:24;7.10;99.90
20380;DHT22;10349;48.666;8.948;2023-04-10T08:12:50;7.30;99.90
20380;DHT22;10349;48.666;8.948;2023-04-10T08:15:17;7.60;99.90
20380;DHT22;10349;48.666;8.948;2023-04-10T08:17:42;7.80;99.90
20380;DHT22;10349;48.666;8.948;2023-04-10T08:20:11;8.00;99.90
20380;DHT22;10349;48.666;8.948;2023-04-10T08:22:37;8.10;99.90
20380;DHT22;10349;48.666;8.948;2023-04-10T08:25:03;8.30;99.90
20380;DHT22;10349;48.666;8.948;2023-04-10T08:27:29;8.30;99.90
20380;DHT22;10349;48.666;8.948;2023-04-10T08:29:55;8.50;99.90
20380;DHT22;10349;48.666;8.948;2023-04-10T08:32:21;8.70;99.90
20380;DHT22;10349;48.666;8.948;2023-04-10T08:34:48;8.80;99.90
20380;DHT22;10349;48.666;8.948;2023-04-10T08:37:14;9.00;99.90
20380;DHT22;10349;48.666;8.948;2023-04-10T08:39:40;9.10;99.90
20380;DHT22;10349;48.666;8.948;2023-04-10T08:42:06;9.30;99.90
20380;DHT22;10349;48.666;8.948;2023-04-10T08:44:32;9.40;99.90
20380;DHT22;10349;48.666;8.948;2023-04-10T08:46:58;9.50;99.90
20380;DHT22;10349;48.666;8.948;2023-04-10T08:49:52;9.60;99.90
20380;DHT22;10349;48.666;8.948;2023-04-10T08:52:24;9.70;99.90
20380;DHT22;10349;48.666;8.948;2023-04-10T08:54:54;9.90;99.90
20380;DHT22;10349;48.666;8.948;2023-04-10T08:57:21;10.00;99.90
20380;DHT22;10349;48.666;8.948;2023-04-10T08:59:48;10.00;99.90
20380;DHT22;10349;48.666;8.948;2023-04-10T09:02:14;10.10;99.90
20380;DHT22;10349;48.666;8.948;2023-04-10T09:04:47;10.20;99.90
20380;DHT22;10349;48.666;8.948;2023-04-10T09:07:14;10.40;99.90
20380;DHT22;10349;48.666;8.948;2023-04-10T09:09:41;10.60;99.90
20380;DHT22;10349;48.666;8.948;2023-04-10T09:12:07;10.70;99.90
20380;DHT22;10349;48.666;8.948;2023-04-10T09:14:34;10.70;99.90
20380;DHT22;10349;48.666;8.948;2023-04-10T09:17:11;10.80;99.90
20380;DHT22;10349;48.666;8.948;2023-04-10T09:19:38;10.90;99.90
20380;DHT22;10349;48.666;8.948;2023-04-10T09:22:04;11.00;99.90
20380;DHT22;10349;48.666;8.948;2023-04-10T09:24:29;11.00;99.90
20380;DHT22;10349;48.666;8.948;2023-04-10T09:26:55;11.20;99.90
20380;DHT22;10349;48.666;8.948;2023-04-10T09:29:21;11.30;99.90
20380;DHT22;10349;48.666;8.948;2023-04-10T09:31:46;11.50;99.90
20380;DHT22;10349;48.666;8.948;2023-04-10T09:34:19;11.60;99.90
20380;DHT22;10349;48.666;8.948;2023-04-10T09:36:55;11.60;99.90
20380;DHT22;10349;48.666;8.948;2023-04-10T09:39:31;11.70;99.90
20380;DHT22;10349;48.666;8.948;2023-04-10T09:42:02;11.80;99.90
20380;DHT22;10349;48.666;8.948;2023-04-10T09:44:49;11.90;99.90
20380;DHT22;10349;48.666;8.948;2023-04-10T09:48:04;12.00;99.90
20380;DHT22;10349;48.666;8.948;2023-04-10T09:51:04;12.00;99.90
20380;DHT22;10349;48.666;8.948;2023-04-10T09:53:49;12.10;99.90
20380;DHT22;10349;48.666;8.948;2023-04-10T09:56:17;12.20;99.90
20380;DHT22;10349;48.666;8.948;2023-04-10T09:58:45;12.30;99.90
20380;DHT22;10349;48.666;8.948;2023-04-10T10:01:11;12.50;99.90
20380;DHT22;10349;48.666;8.948;2023-04-10T10:03:37;12.60;99.90
20380;DHT22;10349;48.666;8.948;2023-04-10T10:06:04;12.70;99.90
20380;DHT22;10349;48.666;8.948;2023-04-10T10:08:32;12.80;99.90
20380;DHT22;10349;48.666;8.948;2023-04-10T10:10:59;12.90;99.90
20380;DHT22;10349;48.666;8.948;2023-04-10T10:13:42;13.00;99.90
20380;DHT22;10349;48.666;8.948;2023-04-10T10:16:20;13.00;99.90
20380;DHT22;10349;48.666;8.948;2023-04-10T10:21:35;13.30;99.90
20380;DHT22;10349;48.666;8.948;2023-04-10T10:24:07;13.50;99.90
20380;DHT22;10349;48.666;8.948;2023-04-10T10:26:34;13.60;99.90
20380;DHT22;10349;48.666;8.948;2023-04-10T10:29:06;13.80;99.90
20380;DHT22;10349;48.666;8.948;2023-04-10T10:31:36;13.90;99.90
20380;DHT22;10349;48.666;8.948;2023-04-10T10:34:03;14.00;99.90
20380;DHT22;10349;48.666;8.948;2023-04-10T10:36:31;14.10;99.90
20380;DHT22;10349;48.666;8.948;2023-04-10T10:44:35;14.50;99.90
20380;DHT22;10349;48.666;8.948;2023-04-10T10:47:23;14.60;99.90
20380;DHT22;10349;48.666;8.948;2023-04-10T10:49:59;14.70;99.90
20380;DHT22;10349;48.666;8.948;2023-04-10T10:52:40;14.80;99.90
20380;DHT22;10349;48.666;8.948;2023-04-10T10:58:07;15.10;99.90
20380;DHT22;10349;48.666;8.948;2023-04-10T11:08:37;16.40;99.90
20380;DHT22;10349;48.666;8.948;2023-04-10T11:11:22;16.80;99.90
20380;DHT22;10349;48.666;8.948;2023-04-10T11:16:40;17.50;99.90
20380;DHT22;10349;48.666;8.948;2023-04-10T11:19:09;17.70;99.30
20380;DHT22;10349;48.666;8.948;2023-04-10T11:22:03;17.60;98.70
20380;DHT22;10349;48.666;8.948;2023-04-10T11:24:53;17.60;98.70
20380;DHT22;10349;48.666;8.948;2023-04-10T11:27:42;17.60;98.80
20380;DHT22;10349;48.666;8.948;2023-04-10T11:30:29;17.70;99.10
20380;DHT22;10349;48.666;8.948;2023-04-10T11:32:55;17.90;98.60
20380;DHT22;10349;48.666;8.948;2023-04-10T11:35:21;18.30;98.80
20380;DHT22;10349;48.666;8.948;2023-04-10T11:37:47;18.50;99.10
20380;DHT22;10349;48.666;8.948;2023-04-10T11:40:15;18.50;96.80
20380;DHT22;10349;48.666;8.948;2023-04-10T11:43:30;18.40;95.90
20380;DHT22;10349;48.666;8.948;2023-04-10T11:46:01;18.50;96.80
20380;DHT22;10349;48.666;8.948;2023-04-10T11:48:27;18.50;96.60
20380;DHT22;10349;48.666;8.948;2023-04-10T11:50:54;18.60;96.60
20380;DHT22;10349;48.666;8.948;2023-04-10T11:53:20;18.70;97.10
20380;DHT22;10349;48.666;8.948;2023-04-10T11:55:46;18.80;95.60
20380;DHT22;10349;48.666;8.948;2023-04-10T11:58:22;19.00;96.30
20380;DHT22;10349;48.666;8.948;2023-04-10T12:01:02;19.30;96.70
20380;DHT22;10349;48.666;8.948;2023-04-10T12:03:39;19.20;95.00
20380;DHT22;10349;48.666;8.948;2023-04-10T12:06:07;18.90;95.50
20380;DHT22;10349;48.666;8.948;2023-04-10T12:08:42;19.00;96.90
20380;DHT22;10349;48.666;8.948;2023-04-10T12:11:10;18.90;94.70
20380;DHT22;10349;48.666;8.948;2023-04-10T12:13:41;18.90;95.70
20380;DHT22;10349;48.666;8.948;2023-04-10T12:16:12;18.90;96.10
20380;DHT22;10349;48.666;8.948;2023-04-10T12:18:41;19.00;95.00
20380;DHT22;10349;48.666;8.948;2023-04-10T12:24:49;19.30;93.90
20380;DHT22;10349;48.666;8.948;2023-04-10T12:27:46;19.60;95.20
20380;DHT22;10349;48.666;8.948;2023-04-10T12:30:27;19.60;95.10
20380;DHT22;10349;48.666;8.948;2023-04-10T12:33:36;19.80;95.90
20380;DHT22;10349;48.666;8.948;2023-04-10T12:36:31;20.00;93.80
20380;DHT22;10349;48.666;8.948;2023-04-10T12:39:20;19.60;93.30
20380;DHT22;10349;48.666;8.948;2023-04-10T12:41:53;19.30;93.20
20380;DHT22;10349;48.666;8.948;2023-04-10T12:44:57;19.20;93.50
20380;DHT22;10349;48.666;8.948;2023-04-10T12:47:24;18.90;92.80
20380;DHT22;10349;48.666;8.948;2023-04-10T12:50:10;18.60;93.40
20380;DHT22;10349;48.666;8.948;2023-04-10T12:52:38;18.60;93.90
20380;DHT22;10349;48.666;8.948;2023-04-10T12:55:15;18.60;94.10
20380;DHT22;10349;48.666;8.948;2023-04-10T12:57:44;18.60;93.40
20380;DHT22;10349;48.666;8.948;2023-04-10T13:00:12;18.50;93.50
20380;DHT22;10349;48.666;8.948;2023-04-10T13:02:39;18.60;92.90
20380;DHT22;10349;48.666;8.948;2023-04-10T13:05:05;18.60;93.80
20380;DHT22;10349;48.666;8.948;2023-04-10T13:07:31;18.70;93.10
20380;DHT22;10349;48.666;8.948;2023-04-10T13:09:57;18.60;92.50
20380;DHT22;10349;48.666;8.948;2023-04-10T13:12:24;18.50;92.00
20380;DHT22;10349;48.666;8.948;2023-04-10T13:14:52;18.50;93.30
20380;DHT22;10349;48.666;8.948;2023-04-10T13:17:22;18.60;93.20
20380;DHT22;10349;48.666;8.948;2023-04-10T13:19:49;19.00;93.50
20380;DHT22;10349;48.666;8.948;2023-04-10T13:22:14;19.10;94.00
20380;DHT22;10349;48.666;8.948;2023-04-10T13:24:41;19.20;93.80
20380;DHT22;10349;48.666;8.948;2023-04-10T13:27:06;19.10;92.70
20380;DHT22;10349;48.666;8.948;2023-04-10T13:29:34;19.00;92.90
20380;DHT22;10349;48.666;8.948;2023-04-10T13:32:02;19.10;93.10
20380;DHT22;10349;48.666;8.948;2023-04-10T13:34:30;19.10;94.10
20380;DHT22;10349;48.666;8.948;2023-04-10T13:36:56;19.30;94.50
20380;DHT22;10349;48.666;8.948;2023-04-10T13:39:21;19.60;93.60
20380;DHT22;10349;48.666;8.948;2023-04-10T13:41:47;19.50;92.10
20380;DHT22;10349;48.666;8.948;2023-04-10T13:44:16;19.30;92.30
20380;DHT22;10349;48.666;8.948;2023-04-10T13:46:42;19.00;91.80
20380;DHT22;10349;48.666;8.948;2023-04-10T13:49:07;18.90;92.10
20380;DHT22;10349;48.666;8.948;2023-04-10T13:51:33;18.80;90.60
20380;DHT22;10349;48.666;8.948;2023-04-10T13:53:59;18.30;91.50
20380;DHT22;10349;48.666;8.948;2023-04-10T13:56:25;18.10;91.40
20380;DHT22;10349;48.666;8.948;2023-04-10T13:58:50;17.90;91.00
20380;DHT22;10349;48.666;8.948;2023-04-10T14:01:17;17.90;91.80
20380;DHT22;10349;48.666;8.948;2023-04-10T14:03:43;17.90;91.40
20380;DHT22;10349;48.666;8.948;2023-04-10T14:06:09;18.00;91.90
20380;DHT22;10349;48.666;8.948;2023-04-10T14:08:34;17.90;91.70
20380;DHT22;10349;48.666;8.948;2023-04-10T14:11:00;18.00;92.50
20380;DHT22;10349;48.666;8.948;2023-04-10T14:13:26;18.00;91.90
20380;DHT22;10349;48.666;8.948;2023-04-10T14:15:51;18.20;92.40
20380;DHT22;10349;48.666;8.948;2023-04-10T14:18:18;18.40;93.10
20380;DHT22;10349;48.666;8.948;2023-04-10T14:20:44;18.40;92.20
20380;DHT22;10349;48.666;8.948;2023-04-10T14:23:10;18.20;91.00
20380;DHT22;10349;48.666;8.948;2023-04-10T14:25:43;18.10;91.20
20380;DHT22;10349;48.666;8.948;2023-04-10T14:28:09;18.00;91.40
20380;DHT22;10349;48.666;8.948;2023-04-10T14:30:46;18.00;92.20
20380;DHT22;10349;48.666;8.948;2023-04-10T14:33:16;18.10;92.00
20380;DHT22;10349;48.666;8.948;2023-04-10T14:35:42;18.20;92.60
20380;DHT22;10349;48.666;8.948;2023-04-10T14:38:08;18.30;92.80
20380;DHT22;10349;48.666;8.948;2023-04-10T14:40:34;18.20;92.70
20380;DHT22;10349;48.666;8.948;2023-04-10T14:43:00;18.30;91.70
20380;DHT22;10349;48.666;8.948;2023-04-10T14:45:26;18.40;92.30
20380;DHT22;10349;48.666;8.948;2023-04-10T14:47:55;18.40;93.10
20380;DHT22;10349;48.666;8.948;2023-04-10T14:50:21;18.50;92.40
20380;DHT22;10349;48.666;8.948;2023-04-10T14:52:47;18.40;92.60
20380;DHT22;10349;48.666;8.948;2023-04-10T14:55:13;18.40;92.00
20380;DHT22;10349;48.666;8.948;2023-04-10T14:57:39;18.30;92.60
20380;DHT22;10349;48.666;8.948;2023-04-10T15:00:05;18.30;92.80
20380;DHT22;10349;48.666;8.948;2023-04-10T15:02:31;18.30;92.80
20380;DHT22;10349;48.666;8.948;2023-04-10T15:04:57;18.40;92.40
20380;DHT22;10349;48.666;8.948;2023-04-10T15:07:26;18.40;92.50
20380;DHT22;10349;48.666;8.948;2023-04-10T15:09:57;18.40;92.50
20380;DHT22;10349;48.666;8.948;2023-04-10T15:12:23;18.30;92.70
20380;DHT22;10349;48.666;8.948;2023-04-10T15:14:51;18.20;92.90
20380;DHT22;10349;48.666;8.948;2023-04-10T15:17:19;18.20;93.30
20380;DHT22;10349;48.666;8.948;2023-04-10T15:19:45;18.10;91.80
20380;DHT22;10349;48.666;8.948;2023-04-10T15:22:11;18.00;92.20
20380;DHT22;10349;48.666;8.948;2023-04-10T15:24:36;18.00;90.90
20380;DHT22;10349;48.666;8.948;2023-04-10T15:27:02;18.00;91.40
20380;DHT22;10349;48.666;8.948;2023-04-10T15:29:28;17.90;90.70
20380;DHT22;10349;48.666;8.948;2023-04-10T15:31:53;17.90;91.20
20380;DHT22;10349;48.666;8.948;2023-04-10T15:34:19;17.80;91.90
20380;DHT22;10349;48.666;8.948;2023-04-10T15:36:45;17.70;91.10
20380;DHT22;10349;48.666;8.948;2023-04-10T15:39:11;17.60;91.00
20380;DHT22;10349;48.666;8.948;2023-04-10T15:41:36;17.60;91.30
20380;DHT22;10349;48.666;8.948;2023-04-10T15:44:02;17.50;91.30
20380;DHT22;10349;48.666;8.948;2023-04-10T15:46:31;17.50;91.20
20380;DHT22;10349;48.666;8.948;2023-04-10T15:48:59;17.50;91.20
20380;DHT22;10349;48.666;8.948;2023-04-10T15:51:25;17.30;91.30
20380;DHT22;10349;48.666;8.948;2023-04-10T15:53:51;17.30;91.00
20380;DHT22;10349;48.666;8.948;2023-04-10T15:56:18;17.10;90.50
20380;DHT22;10349;48.666;8.948;2023-04-10T15:58:44;17.10;90.70
20380;DHT22;10349;48.666;8.948;2023-04-10T16:01:10;17.10;90.00
20380;DHT22;10349;48.666;8.948;2023-04-10T16:03:35;17.10;91.10
20380;DHT22;10349;48.666;8.948;2023-04-10T16:06:01;17.20;91.20
20380;DHT22;10349;48.666;8.948;2023-04-10T16:08:27;17.10;91.40
20380;DHT22;10349;48.666;8.948;2023-04-10T16:10:53;17.00;91.80
20380;DHT22;10349;48.666;8.948;2023-04-10T16:13:19;17.00;91.30
20380;DHT22;10349;48.666;8.948;2023-04-10T16:15:45;17.00;91.50
20380;DHT22;10349;48.666;8.948;2023-04-10T16:18:12;16.90;91.10
20380;DHT22;10349;48.666;8.948;2023-04-10T16:20:40;16.90;91.50
20380;DHT22;10349;48.666;8.948;2023-04-10T16:23:06;16.80;90.90
20380;DHT22;10349;48.666;8.948;2023-04-10T16:25:32;16.80;90.40
20380;DHT22;10349;48.666;8.948;2023-04-10T16:27:57;16.70;90.60
20380;DHT22;10349;48.666;8.948;2023-04-10T16:30:23;16.70;91.50
20380;DHT22;10349;48.666;8.948;2023-04-10T16:32:49;16.60;92.20